createdAt,value
2023-10-05T00:00:39.522Z,980.34
2023-10-05T00:01:39.669Z,980.33
2023-10-05T00:02:39.630Z,980.33
2023-10-05T00:03:39.686Z,980.37
2023-10-05T00:04:39.728Z,980.35
2023-10-05T00:05:39.752Z,980.35
2023-10-05T00:06:39.840Z,980.39
2023-10-05T00:07:39.882Z,980.40
2023-10-05T00:08:39.903Z,980.40
2023-10-05T00:09:39.945Z,980.42
2023-10-05T00:10:40.003Z,980.43
2023-10-05T00:11:40.040Z,980.44
2023-10-05T00:12:40.124Z,980.42
2023-10-05T00:13:40.139Z,980.47
2023-10-05T00:14:40.195Z,980.43
2023-10-05T00:15:40.232Z,980.43
2023-10-05T00:16:40.340Z,980.46
2023-10-05T00:17:40.961Z,980.46
2023-10-05T00:18:40.405Z,980.46
2023-10-05T00:19:40.549Z,980.45
2023-10-05T00:20:40.474Z,980.46
2023-10-05T00:21:40.516Z,980.39
2023-10-05T00:22:40.572Z,980.43
2023-10-05T00:23:40.651Z,980.44
2023-10-05T00:24:40.683Z,980.41
2023-10-05T00:25:40.733Z,980.44
2023-10-05T00:26:40.759Z,980.42
2023-10-05T00:27:40.807Z,980.41
2023-10-05T00:28:40.848Z,980.39
2023-10-05T00:29:40.890Z,980.42
2023-10-05T00:30:40.987Z,980.45
2023-10-05T00:31:41.053Z,980.47
2023-10-05T00:32:41.066Z,980.47
2023-10-05T00:33:41.076Z,980.47
2023-10-05T00:34:41.137Z,980.43
2023-10-05T00:35:41.206Z,980.50
2023-10-05T00:36:41.218Z,980.47
2023-10-05T00:37:41.278Z,980.49
2023-10-05T00:38:41.315Z,980.43
2023-10-05T00:39:41.368Z,980.49
2023-10-05T00:40:41.452Z,980.47
2023-10-05T00:41:41.470Z,980.49
2023-10-05T00:42:41.500Z,980.49
2023-10-05T00:43:41.561Z,980.49
2023-10-05T00:44:41.636Z,980.47
2023-10-05T00:45:41.733Z,980.49
2023-10-05T00:46:41.754Z,980.50
2023-10-05T00:47:41.784Z,980.50
2023-10-05T00:48:41.789Z,980.48
2023-10-05T00:49:41.870Z,980.46
2023-10-05T00:50:41.877Z,980.44
2023-10-05T00:51:41.946Z,980.44
2023-10-05T00:52:41.967Z,980.45
2023-10-05T00:53:42.027Z,980.42
2023-10-05T00:54:42.093Z,980.43
2023-10-05T00:55:42.124Z,980.37
2023-10-05T00:56:42.187Z,980.35
2023-10-05T00:57:42.214Z,980.34
2023-10-05T00:58:42.251Z,980.33
2023-10-05T00:59:42.304Z,980.33
2023-10-05T01:00:42.348Z,980.30
2023-10-05T01:01:42.538Z,980.38
2023-10-05T01:02:42.556Z,980.35
2023-10-05T01:03:42.606Z,980.41
2023-10-05T01:04:42.709Z,980.40
2023-10-05T01:05:42.588Z,980.44
2023-10-05T01:06:42.769Z,980.45
2023-10-05T01:07:42.687Z,980.46
2023-10-05T01:08:42.766Z,980.45
2023-10-05T01:09:42.816Z,980.45
2023-10-05T01:10:42.845Z,980.38
2023-10-05T01:11:42.874Z,980.39
2023-10-05T01:12:42.933Z,980.35
2023-10-05T01:13:42.975Z,980.35
2023-10-05T01:14:43.051Z,980.32
2023-10-05T01:15:43.068Z,980.32
2023-10-05T01:16:43.283Z,980.36
2023-10-05T01:17:43.207Z,980.36
2023-10-05T01:18:43.252Z,980.36
2023-10-05T01:19:43.260Z,980.34
2023-10-05T01:20:43.350Z,980.38
2023-10-05T01:21:43.359Z,980.36
2023-10-05T01:22:43.415Z,980.36
2023-10-05T01:23:43.452Z,980.37
2023-10-05T01:24:43.505Z,980.39
2023-10-05T01:25:43.583Z,980.34
2023-10-05T01:26:43.598Z,980.38
2023-10-05T01:27:43.641Z,980.36
2023-10-05T01:28:43.720Z,980.35
2023-10-05T01:29:43.735Z,980.37
2023-10-05T01:30:43.785Z,980.33
2023-10-05T01:31:43.938Z,980.33
2023-10-05T01:32:43.929Z,980.29
2023-10-05T01:33:43.960Z,980.29
2023-10-05T01:34:43.977Z,980.26
2023-10-05T01:35:44.023Z,980.29
2023-10-05T01:36:44.093Z,980.26
2023-10-05T01:37:44.117Z,980.28
2023-10-05T01:38:44.155Z,980.29
2023-10-05T01:39:44.208Z,980.25
2023-10-05T01:40:44.248Z,980.26
2023-10-05T01:41:44.342Z,980.26
2023-10-05T01:42:44.344Z,980.24
2023-10-05T01:43:44.439Z,980.26
2023-10-05T01:44:44.430Z,980.27
2023-10-05T01:45:44.566Z,980.29
2023-10-05T01:46:44.549Z,980.25
2023-10-05T01:47:44.628Z,980.30
2023-10-05T01:48:44.622Z,980.33
2023-10-05T01:49:44.710Z,980.35
2023-10-05T01:50:44.735Z,980.35
2023-10-05T01:51:44.791Z,980.36
2023-10-05T01:52:44.852Z,980.33
2023-10-05T01:53:44.857Z,980.32
2023-10-05T01:54:44.976Z,980.36
2023-10-05T01:55:44.996Z,980.35
2023-10-05T01:56:44.994Z,980.35
2023-10-05T01:57:45.066Z,980.37
2023-10-05T01:58:45.110Z,980.30
2023-10-05T01:59:45.143Z,980.34
2023-10-05T02:00:45.260Z,980.31
2023-10-05T02:01:45.347Z,980.29
2023-10-05T02:02:45.350Z,980.22
2023-10-05T02:03:45.386Z,980.21
2023-10-05T02:04:46.050Z,980.19
2023-10-05T02:05:45.415Z,980.19
2023-10-05T02:06:45.469Z,980.21
2023-10-05T02:07:45.550Z,980.19
2023-10-05T02:08:45.591Z,980.15
2023-10-05T02:09:45.617Z,980.13
2023-10-05T02:10:45.655Z,980.11
2023-10-05T02:11:45.692Z,980.09
2023-10-05T02:12:45.774Z,980.05
2023-10-05T02:13:45.785Z,980.06
2023-10-05T02:14:45.838Z,980.09
2023-10-05T02:15:45.908Z,980.08
2023-10-05T02:16:45.954Z,980.10
2023-10-05T02:17:46.008Z,980.13
2023-10-05T02:18:46.018Z,980.16
2023-10-05T02:19:46.092Z,980.15
2023-10-05T02:20:46.135Z,980.15
2023-10-05T02:21:46.148Z,980.09
2023-10-05T02:22:46.196Z,980.08
2023-10-05T02:23:46.279Z,980.09
2023-10-05T02:24:46.303Z,980.09
2023-10-05T02:25:46.395Z,980.06
2023-10-05T02:26:46.403Z,980.05
2023-10-05T02:27:46.423Z,980.05
2023-10-05T02:28:46.478Z,980.03
2023-10-05T02:29:46.514Z,980.09
2023-10-05T02:30:46.632Z,980.11
2023-10-05T02:31:46.645Z,980.13
2023-10-05T02:32:46.681Z,980.11
2023-10-05T02:33:46.702Z,980.10
2023-10-05T02:34:46.777Z,980.07
2023-10-05T02:35:46.862Z,980.08
2023-10-05T02:36:46.841Z,980.09
2023-10-05T02:37:46.895Z,980.05
2023-10-05T02:38:46.933Z,980.08
2023-10-05T02:39:46.991Z,980.08
2023-10-05T02:40:47.076Z,980.11
2023-10-05T02:41:47.097Z,980.15
2023-10-05T02:42:47.152Z,980.15
2023-10-05T02:43:47.176Z,980.12
2023-10-05T02:44:47.216Z,980.15
2023-10-05T02:45:47.268Z,980.13
2023-10-05T02:46:47.324Z,980.10
2023-10-05T02:47:47.471Z,980.12
2023-10-05T02:48:47.401Z,980.11
2023-10-05T02:49:47.461Z,980.07
2023-10-05T02:50:47.495Z,980.08
2023-10-05T02:51:47.612Z,980.05
2023-10-05T02:52:47.623Z,980.04
2023-10-05T02:53:47.696Z,980.05
2023-10-05T02:54:47.708Z,980.05
2023-10-05T02:55:47.742Z,980.04
2023-10-05T02:56:47.800Z,980.07
2023-10-05T02:57:47.830Z,980.08
2023-10-05T02:58:47.867Z,980.06
2023-10-05T02:59:47.987Z,980.02
2023-10-05T03:00:48.002Z,980.04
2023-10-05T03:01:48.055Z,980.02
2023-10-05T03:02:48.089Z,979.99
2023-10-05T03:03:48.142Z,979.95
2023-10-05T03:04:48.586Z,979.95
2023-10-05T03:05:48.192Z,979.94
2023-10-05T03:06:48.247Z,979.92
2023-10-05T03:07:48.286Z,979.88
2023-10-05T03:08:48.370Z,979.89
2023-10-05T03:09:48.399Z,979.86
2023-10-05T03:10:48.432Z,979.86
2023-10-05T03:11:48.473Z,979.89
2023-10-05T03:12:48.574Z,979.91
2023-10-05T03:13:48.567Z,979.89
2023-10-05T03:14:48.649Z,979.85
2023-10-05T03:15:48.667Z,979.89
2023-10-05T03:16:48.750Z,979.90
2023-10-05T03:17:48.786Z,979.89
2023-10-05T03:18:48.814Z,979.88
2023-10-05T03:19:48.848Z,979.91
2023-10-05T03:20:48.912Z,979.93
2023-10-05T03:21:48.936Z,979.91
2023-10-05T03:22:49.036Z,979.91
2023-10-05T03:23:49.031Z,979.90
2023-10-05T03:24:49.110Z,979.91
2023-10-05T03:25:49.125Z,979.95
2023-10-05T03:26:49.180Z,979.93
2023-10-05T03:27:49.251Z,979.96
2023-10-05T03:28:49.271Z,979.97
2023-10-05T03:29:49.317Z,979.98
2023-10-05T03:30:49.468Z,979.96
2023-10-05T03:31:49.535Z,979.99
2023-10-05T03:32:49.841Z,979.99
2023-10-05T03:33:49.503Z,980.02
2023-10-05T03:34:49.550Z,980.04
2023-10-05T03:35:49.597Z,980.05
2023-10-05T03:36:49.640Z,980.03
2023-10-05T03:37:49.723Z,980.06
2023-10-05T03:38:49.734Z,980.06
2023-10-05T03:39:49.791Z,980.05
2023-10-05T03:40:49.868Z,980.04
2023-10-05T03:41:49.877Z,980.07
2023-10-05T03:42:49.950Z,980.04
2023-10-05T03:43:49.974Z,980.11
2023-10-05T03:44:50.011Z,980.14
2023-10-05T03:45:50.070Z,980.13
2023-10-05T03:46:50.210Z,980.12
2023-10-05T03:47:50.207Z,980.19
2023-10-05T03:48:50.228Z,980.23
2023-10-05T03:49:50.254Z,980.19
2023-10-05T03:50:50.291Z,980.16
2023-10-05T03:51:50.342Z,980.20
2023-10-05T03:52:50.418Z,980.21
2023-10-05T03:53:50.433Z,980.18
2023-10-05T03:54:50.475Z,980.21
2023-10-05T03:55:50.556Z,980.20
2023-10-05T03:56:50.567Z,980.17
2023-10-05T03:57:50.626Z,980.16
2023-10-05T03:58:50.661Z,980.15
2023-10-05T03:59:50.749Z,980.16
2023-10-05T04:00:51.026Z,980.15
2023-10-05T04:01:50.914Z,980.17
2023-10-05T04:02:50.903Z,980.19
2023-10-05T04:03:50.965Z,980.14
2023-10-05T04:04:50.969Z,980.10
2023-10-05T04:05:50.986Z,980.13
2023-10-05T04:06:51.060Z,980.11
2023-10-05T04:07:51.079Z,980.11
2023-10-05T04:08:51.229Z,980.09
2023-10-05T04:09:51.175Z,980.11
2023-10-05T04:10:51.328Z,980.08
2023-10-05T04:11:51.298Z,980.07
2023-10-05T04:12:51.321Z,980.07
2023-10-05T04:13:51.366Z,980.04
2023-10-05T04:14:51.412Z,980.05
2023-10-05T04:15:51.456Z,980.07
2023-10-05T04:16:51.533Z,980.05
2023-10-05T04:17:51.606Z,980.10
2023-10-05T04:18:51.625Z,980.06
2023-10-05T04:19:51.712Z,980.06
2023-10-05T04:20:54.289Z,980.06
2023-10-05T04:21:51.756Z,980.06
2023-10-05T04:22:51.782Z,980.09
2023-10-05T04:23:51.829Z,980.12
2023-10-05T04:24:51.871Z,980.12
2023-10-05T04:25:51.909Z,980.17
2023-10-05T04:26:51.998Z,980.18
2023-10-05T04:27:52.008Z,980.16
2023-10-05T04:28:52.063Z,980.14
2023-10-05T04:29:52.101Z,980.16
2023-10-05T04:30:52.189Z,980.16
2023-10-05T04:31:52.261Z,980.17
2023-10-05T04:32:52.251Z,980.20
2023-10-05T04:33:52.301Z,980.19
2023-10-05T04:34:52.338Z,980.21
2023-10-05T04:35:52.380Z,980.18
2023-10-05T04:36:52.451Z,980.19
2023-10-05T04:37:52.614Z,980.21
2023-10-05T04:38:52.544Z,980.18
2023-10-05T04:39:52.578Z,980.17
2023-10-05T04:40:52.605Z,980.17
2023-10-05T04:41:52.662Z,980.16
2023-10-05T04:42:52.736Z,980.16
2023-10-05T04:43:52.755Z,980.21
2023-10-05T04:44:52.817Z,980.20
2023-10-05T04:45:52.872Z,980.18
2023-10-05T04:46:53.091Z,980.17
2023-10-05T04:47:52.957Z,980.17
2023-10-05T04:48:52.985Z,980.20
2023-10-05T04:49:53.089Z,980.21
2023-10-05T04:50:53.080Z,980.15
2023-10-05T04:51:53.119Z,980.14
2023-10-05T04:52:53.164Z,980.17
2023-10-05T04:53:53.213Z,980.12
2023-10-05T04:54:53.324Z,980.12
2023-10-05T04:55:53.310Z,980.15
2023-10-05T04:56:53.347Z,980.12
2023-10-05T04:57:53.404Z,980.12
2023-10-05T04:58:53.450Z,980.14
2023-10-05T04:59:53.557Z,980.17
2023-10-05T05:00:53.575Z,980.19
2023-10-05T05:01:53.690Z,980.17
2023-10-05T05:02:53.667Z,980.17
2023-10-05T05:03:54.590Z,980.19
2023-10-05T05:04:53.906Z,980.21
2023-10-05T05:05:53.771Z,980.21
2023-10-05T05:06:53.819Z,980.23
2023-10-05T05:07:53.926Z,980.23
2023-10-05T05:08:53.956Z,980.23
2023-10-05T05:09:53.978Z,980.24
2023-10-05T05:10:54.008Z,980.26
2023-10-05T05:11:54.054Z,980.26
2023-10-05T05:12:54.130Z,980.28
2023-10-05T05:13:54.141Z,980.31
2023-10-05T05:14:54.214Z,980.31
2023-10-05T05:15:54.233Z,980.29
2023-10-05T05:16:54.394Z,980.29
2023-10-05T05:17:54.418Z,980.31
2023-10-05T05:18:54.446Z,980.33
2023-10-05T05:19:54.497Z,980.38
2023-10-05T05:20:54.472Z,980.37
2023-10-05T05:21:54.541Z,980.40
2023-10-05T05:22:54.571Z,980.39
2023-10-05T05:23:54.606Z,980.42
2023-10-05T05:24:54.664Z,980.42
2023-10-05T05:25:54.697Z,980.44
2023-10-05T05:26:57.246Z,980.44
2023-10-05T05:27:54.827Z,980.44
2023-10-05T05:28:54.844Z,980.43
2023-10-05T05:29:55.077Z,980.43
2023-10-05T05:30:54.998Z,980.42
2023-10-05T05:31:55.051Z,980.43
2023-10-05T05:32:55.111Z,980.42
2023-10-05T05:33:55.073Z,980.42
2023-10-05T05:34:55.153Z,980.42
2023-10-05T05:35:55.173Z,980.44
2023-10-05T05:36:55.210Z,980.44
2023-10-05T05:37:55.271Z,980.44
2023-10-05T05:38:55.338Z,980.47
2023-10-05T05:39:55.374Z,980.47
2023-10-05T05:40:55.392Z,980.47
2023-10-05T05:41:55.466Z,980.49
2023-10-05T05:42:55.578Z,980.48
2023-10-05T05:43:55.568Z,980.47
2023-10-05T05:44:55.580Z,980.41
2023-10-05T05:45:55.772Z,980.41
2023-10-05T05:46:55.778Z,980.41
2023-10-05T05:47:55.894Z,980.39
2023-10-05T05:48:55.772Z,980.39
2023-10-05T05:49:55.825Z,980.44
2023-10-05T05:50:55.901Z,980.44
2023-10-05T05:51:56.008Z,980.43
2023-10-05T05:52:55.963Z,980.47
2023-10-05T05:53:56.009Z,980.45
2023-10-05T05:54:56.191Z,980.43
2023-10-05T05:55:56.136Z,980.45
2023-10-05T05:56:57.250Z,980.43
2023-10-05T05:57:56.318Z,980.44
2023-10-05T05:58:56.235Z,980.41
2023-10-05T05:59:56.321Z,980.42
2023-10-05T06:00:56.325Z,980.46
2023-10-05T06:01:56.451Z,980.44
2023-10-05T06:02:58.729Z,980.50
2023-10-05T06:03:56.550Z,980.48
2023-10-05T06:04:56.574Z,980.51
2023-10-05T06:05:56.572Z,980.46
2023-10-05T06:06:56.639Z,980.43
2023-10-05T06:07:56.683Z,980.43
2023-10-05T06:08:56.721Z,980.44
2023-10-05T06:09:56.919Z,980.46
2023-10-05T06:10:56.836Z,980.42
2023-10-05T06:11:56.848Z,980.37
2023-10-05T06:12:56.957Z,980.44
2023-10-05T06:13:56.972Z,980.41
2023-10-05T06:14:56.996Z,980.42
2023-10-05T06:15:57.096Z,980.51
2023-10-05T06:16:57.191Z,980.45
2023-10-05T06:17:57.166Z,980.52
2023-10-05T06:18:57.264Z,980.50
2023-10-05T06:19:57.225Z,980.48
2023-10-05T06:20:57.275Z,980.54
2023-10-05T06:21:57.406Z,980.57
2023-10-05T06:22:57.375Z,980.54
2023-10-05T06:23:57.442Z,980.59
2023-10-05T06:24:57.495Z,980.58
2023-10-05T06:25:57.504Z,980.56
2023-10-05T06:26:57.613Z,980.49
2023-10-05T06:27:57.676Z,980.52
2023-10-05T06:28:57.657Z,980.44
2023-10-05T06:29:57.692Z,980.43
2023-10-05T06:30:57.778Z,980.42
2023-10-05T06:31:57.996Z,980.45
2023-10-05T06:32:57.883Z,980.44
2023-10-05T06:33:57.907Z,980.47
2023-10-05T06:34:57.943Z,980.50
2023-10-05T06:35:57.990Z,980.51
2023-10-05T06:36:58.089Z,980.55
2023-10-05T06:37:58.080Z,980.52
2023-10-05T06:38:58.130Z,980.52
2023-10-05T06:39:58.219Z,980.46
2023-10-05T06:40:58.223Z,980.47
2023-10-05T06:41:58.290Z,980.46
2023-10-05T06:42:58.376Z,980.40
2023-10-05T06:43:58.371Z,980.40
2023-10-05T06:44:58.406Z,980.45
2023-10-05T06:45:58.532Z,980.44
2023-10-05T06:46:58.536Z,980.50
2023-10-05T06:47:58.650Z,980.51
2023-10-05T06:48:58.774Z,980.52
2023-10-05T06:49:58.653Z,980.41
2023-10-05T06:50:58.719Z,980.43
2023-10-05T06:51:58.797Z,980.42
2023-10-05T06:53:00.786Z,980.40
2023-10-05T06:53:58.892Z,980.43
2023-10-05T06:54:58.967Z,980.45
2023-10-05T06:55:58.935Z,980.50
2023-10-05T06:56:59.028Z,980.52
2023-10-05T06:57:59.041Z,980.54
2023-10-05T06:58:59.105Z,980.57
2023-10-05T06:59:59.152Z,980.59
2023-10-05T07:00:59.185Z,980.60
2023-10-05T07:01:59.253Z,980.57
2023-10-05T07:02:59.385Z,980.55
2023-10-05T07:03:59.447Z,980.54
2023-10-05T07:04:59.419Z,980.58
2023-10-05T07:05:59.413Z,980.61
2023-10-05T07:06:59.474Z,980.58
2023-10-05T07:07:59.548Z,980.57
2023-10-05T07:08:59.562Z,980.59
2023-10-05T07:09:59.658Z,980.59
2023-10-05T07:10:59.695Z,980.61
2023-10-05T07:11:59.742Z,980.64
2023-10-05T07:12:59.868Z,980.71
2023-10-05T07:13:59.793Z,980.74
2023-10-05T07:14:59.871Z,980.75
2023-10-05T07:15:59.941Z,980.77
2023-10-05T07:16:59.972Z,980.78
2023-10-05T07:18:00.154Z,980.81
2023-10-05T07:19:00.195Z,980.85
2023-10-05T07:20:00.164Z,980.85
2023-10-05T07:21:00.141Z,980.85
2023-10-05T07:22:00.187Z,980.83
2023-10-05T07:23:00.270Z,980.86
2023-10-05T07:24:00.305Z,980.89
2023-10-05T07:25:00.401Z,980.87
2023-10-05T07:26:00.427Z,980.90
2023-10-05T07:27:00.451Z,980.92
2023-10-05T07:28:09.174Z,980.97
2023-10-05T07:29:00.527Z,980.95
2023-10-05T07:30:00.588Z,980.96
2023-10-05T07:31:00.714Z,980.98
2023-10-05T07:32:00.771Z,980.96
2023-10-05T07:33:14.603Z,981.00
2023-10-05T07:34:00.764Z,980.98
2023-10-05T07:35:00.889Z,980.99
2023-10-05T07:36:00.878Z,981.02
2023-10-05T07:37:00.950Z,980.99
2023-10-05T07:38:00.971Z,981.01
2023-10-05T07:39:01.050Z,981.03
2023-10-05T07:40:02.785Z,981.03
2023-10-05T07:41:01.145Z,981.06
2023-10-05T07:42:01.220Z,981.07
2023-10-05T07:43:01.332Z,981.10
2023-10-05T07:44:08.237Z,981.08
2023-10-05T07:45:01.371Z,981.12
2023-10-05T07:46:01.518Z,981.09
2023-10-05T07:47:01.545Z,981.09
2023-10-05T07:48:08.374Z,981.11
2023-10-05T07:49:01.659Z,981.10
2023-10-05T07:50:01.553Z,981.05
2023-10-05T07:51:01.606Z,981.09
2023-10-05T07:52:01.696Z,981.08
2023-10-05T07:53:01.719Z,981.10
2023-10-05T07:54:01.778Z,981.07
2023-10-05T07:55:01.880Z,981.08
2023-10-05T07:56:01.860Z,981.15
2023-10-05T07:57:02.651Z,981.15
2023-10-05T07:58:01.999Z,981.25
2023-10-05T07:59:01.989Z,981.28
2023-10-05T08:00:02.078Z,981.26
2023-10-05T08:01:02.197Z,981.29
2023-10-05T08:02:02.327Z,981.28
2023-10-05T08:03:02.329Z,981.26
2023-10-05T08:04:02.361Z,981.26
2023-10-05T08:05:02.437Z,981.21
2023-10-05T08:06:02.342Z,981.18
2023-10-05T08:07:02.431Z,981.18
2023-10-05T08:08:02.455Z,981.19
2023-10-05T08:09:02.500Z,981.24
2023-10-05T08:10:02.634Z,981.21
2023-10-05T08:11:02.582Z,981.27
2023-10-05T08:12:02.641Z,981.22
2023-10-05T08:13:02.710Z,981.23
2023-10-05T08:14:02.771Z,981.25
2023-10-05T08:15:02.869Z,981.32
2023-10-05T08:16:02.950Z,981.35
2023-10-05T08:17:02.931Z,981.37
2023-10-05T08:18:03.104Z,981.32
2023-10-05T08:19:03.045Z,981.27
2023-10-05T08:20:03.655Z,981.26
2023-10-05T08:21:03.071Z,981.30
2023-10-05T08:22:03.201Z,981.28
2023-10-05T08:23:03.202Z,981.30
2023-10-05T08:24:03.228Z,981.33
2023-10-05T08:25:05.002Z,981.36
2023-10-05T08:26:03.345Z,981.40
2023-10-05T08:27:03.410Z,981.38
2023-10-05T08:28:03.526Z,981.40
2023-10-05T08:29:03.486Z,981.43
2023-10-05T08:30:03.522Z,981.41
2023-10-05T08:31:03.595Z,981.36
2023-10-05T08:32:03.683Z,981.38
2023-10-05T08:33:03.721Z,981.34
2023-10-05T08:34:03.736Z,981.33
2023-10-05T08:35:03.778Z,981.32
2023-10-05T08:36:03.821Z,981.31
2023-10-05T08:37:03.957Z,981.29
2023-10-05T08:38:03.948Z,981.26
2023-10-05T08:39:03.982Z,981.25
2023-10-05T08:40:04.045Z,981.20
2023-10-05T08:41:04.089Z,981.19
2023-10-05T08:42:04.190Z,981.19
2023-10-05T08:43:04.243Z,981.19
2023-10-05T08:44:04.225Z,981.14
2023-10-05T08:45:04.285Z,981.13
2023-10-05T08:46:06.220Z,981.16
2023-10-05T08:47:04.449Z,981.15
2023-10-05T08:48:04.424Z,981.16
2023-10-05T08:49:04.620Z,981.13
2023-10-05T08:50:04.529Z,981.15
2023-10-05T08:51:04.619Z,981.18
2023-10-05T08:52:05.131Z,981.18
2023-10-05T08:53:04.677Z,981.16
2023-10-05T08:54:04.727Z,981.18
2023-10-05T08:55:04.806Z,981.17
2023-10-05T08:56:04.847Z,981.13
2023-10-05T08:57:04.882Z,981.18
2023-10-05T08:58:04.991Z,981.15
2023-10-05T08:59:05.018Z,981.19
2023-10-05T09:00:05.061Z,981.20
2023-10-05T09:01:05.272Z,981.20
2023-10-05T09:02:05.262Z,981.18
2023-10-05T09:03:05.212Z,981.21
2023-10-05T09:04:06.183Z,981.26
2023-10-05T09:05:05.305Z,981.26
2023-10-05T09:06:05.341Z,981.31
2023-10-05T09:07:05.880Z,981.32
2023-10-05T09:08:05.447Z,981.34
2023-10-05T09:09:05.556Z,981.39
2023-10-05T09:10:05.580Z,981.38
2023-10-05T09:11:05.577Z,981.40
2023-10-05T09:12:05.634Z,981.44
2023-10-05T09:13:05.698Z,981.47
2023-10-05T09:14:05.792Z,981.48
2023-10-05T09:15:05.819Z,981.48
2023-10-05T09:16:05.885Z,981.45
2023-10-05T09:17:05.914Z,981.48
2023-10-05T09:18:05.968Z,981.49
2023-10-05T09:19:06.226Z,981.49
2023-10-05T09:20:06.058Z,981.45
2023-10-05T09:21:06.092Z,981.47
2023-10-05T09:22:06.180Z,981.49
2023-10-05T09:23:06.199Z,981.44
2023-10-05T09:24:07.323Z,981.46
2023-10-05T09:25:06.316Z,981.46
2023-10-05T09:26:06.365Z,981.46
2023-10-05T09:27:06.378Z,981.44
2023-10-05T09:28:06.525Z,981.45
2023-10-05T09:29:06.641Z,981.42
2023-10-05T09:30:06.529Z,981.47
2023-10-05T09:31:06.716Z,981.46
2023-10-05T09:32:06.955Z,981.45
2023-10-05T09:33:06.745Z,981.45
2023-10-05T09:34:06.998Z,981.49
2023-10-05T09:35:06.801Z,981.53
2023-10-05T09:36:06.841Z,981.50
2023-10-05T09:37:08.405Z,981.50
2023-10-05T09:38:06.936Z,981.43
2023-10-05T09:39:06.994Z,981.41
2023-10-05T09:40:07.094Z,981.41
2023-10-05T09:41:07.092Z,981.42
2023-10-05T09:42:07.138Z,981.39
2023-10-05T09:43:07.247Z,981.39
2023-10-05T09:44:07.431Z,981.39
2023-10-05T09:45:07.321Z,981.42
2023-10-05T09:46:08.463Z,981.38
2023-10-05T09:47:07.426Z,981.44
2023-10-05T09:48:07.451Z,981.45
2023-10-05T09:49:07.697Z,981.45
2023-10-05T09:50:07.547Z,981.49
2023-10-05T09:51:07.613Z,981.49
2023-10-05T09:52:07.683Z,981.45
2023-10-05T09:53:07.740Z,981.43
2023-10-05T09:54:07.959Z,981.37
2023-10-05T09:55:07.851Z,981.39
2023-10-05T09:56:07.859Z,981.41
2023-10-05T09:57:07.911Z,981.37
2023-10-05T09:58:08.000Z,981.39
2023-10-05T09:59:08.036Z,981.39
2023-10-05T10:00:08.068Z,981.38
2023-10-05T10:01:08.145Z,981.37
2023-10-05T10:02:08.284Z,981.36
2023-10-05T10:03:08.324Z,981.44
2023-10-05T10:04:08.511Z,981.40
2023-10-05T10:05:08.409Z,981.39
2023-10-05T10:06:08.373Z,981.40
2023-10-05T10:07:08.434Z,981.34
2023-10-05T10:08:10.025Z,981.37
2023-10-05T10:09:08.782Z,981.33
2023-10-05T10:10:08.631Z,981.36
2023-10-05T10:11:08.647Z,981.35
2023-10-05T10:12:08.683Z,981.32
2023-10-05T10:13:08.844Z,981.27
2023-10-05T10:14:10.464Z,981.27
2023-10-05T10:15:08.828Z,981.28
2023-10-05T10:16:08.995Z,981.23
2023-10-05T10:17:08.928Z,981.19
2023-10-05T10:18:09.038Z,981.17
2023-10-05T10:19:09.086Z,981.13
2023-10-05T10:20:09.092Z,981.12
2023-10-05T10:21:09.181Z,981.11
2023-10-05T10:22:09.217Z,981.11
2023-10-05T10:23:09.238Z,981.15
2023-10-05T10:24:09.502Z,981.15
2023-10-05T10:25:09.394Z,981.15
2023-10-05T10:26:09.451Z,981.13
2023-10-05T10:27:12.786Z,981.12
2023-10-05T10:28:09.517Z,981.08
2023-10-05T10:29:11.178Z,981.06
2023-10-05T10:30:09.630Z,981.02
2023-10-05T10:31:09.732Z,981.06
2023-10-05T10:32:09.754Z,981.05
2023-10-05T10:33:09.782Z,981.09
2023-10-05T10:34:09.834Z,981.08
2023-10-05T10:35:09.890Z,981.06
2023-10-05T10:36:09.922Z,981.05
2023-10-05T10:37:09.993Z,981.05
2023-10-05T10:38:10.002Z,981.06
2023-10-05T10:39:10.097Z,981.04
2023-10-05T10:40:10.164Z,981.00
2023-10-05T10:41:10.164Z,980.98
2023-10-05T10:42:10.212Z,980.91
2023-10-05T10:43:10.364Z,980.92
2023-10-05T10:44:10.316Z,980.87
2023-10-05T10:45:10.373Z,980.87
2023-10-05T10:46:10.673Z,980.82
2023-10-05T10:47:10.535Z,980.78
2023-10-05T10:48:10.613Z,980.75
2023-10-05T10:49:12.115Z,980.75
2023-10-05T10:50:10.654Z,980.73
2023-10-05T10:51:10.683Z,980.72
2023-10-05T10:52:16.785Z,980.75
2023-10-05T10:53:11.026Z,980.78
2023-10-05T10:54:10.846Z,980.79
2023-10-05T10:55:10.929Z,980.78
2023-10-05T10:56:10.969Z,980.77
2023-10-05T10:57:11.005Z,980.79
2023-10-05T10:58:11.077Z,980.76
2023-10-05T10:59:11.099Z,980.75
2023-10-05T11:00:11.155Z,980.77
2023-10-05T11:01:11.246Z,980.79
2023-10-05T11:02:11.495Z,980.77
2023-10-05T11:03:11.303Z,980.79
2023-10-05T11:04:11.371Z,980.71
2023-10-05T11:05:11.486Z,980.72
2023-10-05T11:06:11.500Z,980.75
2023-10-05T11:07:11.529Z,980.75
2023-10-05T11:08:11.561Z,980.78
2023-10-05T11:09:11.620Z,980.82
2023-10-05T11:10:11.689Z,980.83
2023-10-05T11:11:11.748Z,980.80
2023-10-05T11:12:12.448Z,980.84
2023-10-05T11:13:11.878Z,980.81
2023-10-05T11:14:11.883Z,980.85
2023-10-05T11:15:11.947Z,980.83
2023-10-05T11:16:12.115Z,980.86
2023-10-05T11:17:12.146Z,980.82
2023-10-05T11:18:12.110Z,980.81
2023-10-05T11:19:22.454Z,980.82
2023-10-05T11:20:12.249Z,980.83
2023-10-05T11:21:12.272Z,980.79
2023-10-05T11:22:12.330Z,980.85
2023-10-05T11:23:12.343Z,980.84
2023-10-05T11:24:14.367Z,980.79
2023-10-05T11:25:12.484Z,980.85
2023-10-05T11:26:12.670Z,980.83
2023-10-05T11:27:12.556Z,980.87
2023-10-05T11:28:12.657Z,980.82
2023-10-05T11:29:12.697Z,980.85
2023-10-05T11:30:18.750Z,980.86
2023-10-05T11:31:27.644Z,980.85
2023-10-05T11:32:12.855Z,980.83
2023-10-05T11:33:48.997Z,980.83
2023-10-05T11:34:57.010Z,980.85
2023-10-05T11:35:20.018Z,980.83
2023-10-05T11:36:13.230Z,980.78
2023-10-05T11:37:13.427Z,980.84
2023-10-05T11:38:13.377Z,980.81
2023-10-05T11:39:13.320Z,980.82
2023-10-05T11:40:13.363Z,980.81
2023-10-05T11:41:13.323Z,980.86
2023-10-05T11:42:13.388Z,980.86
2023-10-05T11:43:13.493Z,980.84
2023-10-05T11:44:13.511Z,980.85
2023-10-05T11:45:13.563Z,980.83
2023-10-05T11:46:13.723Z,980.81
2023-10-05T11:47:13.749Z,980.75
2023-10-05T11:48:13.737Z,980.72
2023-10-05T11:49:13.800Z,980.76
2023-10-05T11:50:13.807Z,980.75
2023-10-05T11:51:13.878Z,980.79
2023-10-05T11:52:13.940Z,980.79
2023-10-05T11:53:14.744Z,980.81
2023-10-05T11:54:14.024Z,980.84
2023-10-05T11:55:14.152Z,980.82
2023-10-05T11:56:14.139Z,980.80
2023-10-05T11:57:14.202Z,980.80
2023-10-05T11:58:14.277Z,980.76
2023-10-05T11:59:14.302Z,980.77
2023-10-05T12:00:14.391Z,980.77
2023-10-05T12:01:14.478Z,980.73
2023-10-05T12:02:14.621Z,980.65
2023-10-05T12:03:14.671Z,980.63
2023-10-05T12:04:14.780Z,980.61
2023-10-05T12:05:14.830Z,980.58
2023-10-05T12:06:14.717Z,980.56
2023-10-05T12:07:14.744Z,980.56
2023-10-05T12:08:14.795Z,980.55
2023-10-05T12:09:14.837Z,980.51
2023-10-05T12:10:15.049Z,980.53
2023-10-05T12:11:14.956Z,980.51
2023-10-05T12:12:15.019Z,980.51
2023-10-05T12:13:15.090Z,980.49
2023-10-05T12:14:15.110Z,980.55
2023-10-05T12:15:15.190Z,980.51
2023-10-05T12:16:15.278Z,980.54
2023-10-05T12:17:15.342Z,980.53
2023-10-05T12:18:15.321Z,980.55
2023-10-05T12:19:15.717Z,980.53
2023-10-05T12:20:15.436Z,980.49
2023-10-05T12:21:15.471Z,980.48
2023-10-05T12:22:15.599Z,980.45
2023-10-05T12:23:15.573Z,980.45
2023-10-05T12:24:15.640Z,980.42
2023-10-05T12:25:15.685Z,980.43
2023-10-05T12:26:15.769Z,980.42
2023-10-05T12:27:15.788Z,980.41
2023-10-05T12:28:15.883Z,980.39
2023-10-05T12:29:15.902Z,980.42